createdAt,value
2019-04-20T00:01:40.903Z,9.00
2019-04-20T00:04:20.523Z,15.75
2019-04-20T00:06:49.590Z,18.87
2019-04-20T00:09:24.085Z,8.83
2019-04-20T00:12:01.504Z,7.42
2019-04-20T00:14:29.582Z,7.65
2019-04-20T00:16:58.792Z,14.07
2019-04-20T00:19:37.103Z,7.00
2019-04-20T00:22:08.680Z,7.67
2019-04-20T00:24:41.123Z,6.42
2019-04-20T00:27:40.497Z,7.35
2019-04-20T00:29:58.802Z,6.80
2019-04-20T00:32:35.983Z,10.32
2019-04-20T00:34:52.767Z,13.03
2019-04-20T00:37:25.388Z,6.10
2019-04-20T00:39:57.917Z,7.35
2019-04-20T00:42:36.906Z,7.20
2019-04-20T00:45:10.337Z,7.22
2019-04-20T00:47:46.994Z,6.53
2019-04-20T00:50:24.661Z,16.20
2019-04-20T00:52:56.961Z,7.78
2019-04-20T00:55:14.928Z,7.60
2019-04-20T00:57:53.039Z,8.13
2019-04-20T01:00:37.116Z,16.00
2019-04-20T01:03:10.156Z,16.17
2019-04-20T01:06:07.937Z,15.65
2019-04-20T01:08:21.253Z,15.32
2019-04-20T01:10:57.387Z,15.18
2019-04-20T01:13:27.152Z,14.73
2019-04-20T01:16:06.215Z,14.68
2019-04-20T01:18:32.187Z,14.07
2019-04-20T01:21:06.833Z,14.43
2019-04-20T01:23:43.809Z,13.98
2019-04-20T01:26:15.567Z,13.70
2019-04-20T01:28:54.210Z,13.53
2019-04-20T01:31:27.131Z,14.15
2019-04-20T01:33:58.481Z,14.30
2019-04-20T01:36:42.965Z,13.20
2019-04-20T01:39:07.567Z,13.13
2019-04-20T01:41:28.853Z,13.80
2019-04-20T01:44:00.561Z,14.28
2019-04-20T01:46:33.283Z,13.70
2019-04-20T01:49:11.491Z,14.05
2019-04-20T01:51:46.990Z,14.47
2019-04-20T01:54:27.588Z,14.45
2019-04-20T01:57:00.922Z,15.30
2019-04-20T01:59:40.076Z,15.23
2019-04-20T02:02:14.077Z,15.25
2019-04-20T02:04:45.959Z,15.63
2019-04-20T02:07:18.469Z,20.05
2019-04-20T02:09:56.308Z,17.45
2019-04-20T02:12:26.085Z,17.05
2019-04-20T02:14:59.449Z,17.40
2019-04-20T02:17:37.374Z,17.05
2019-04-20T02:20:22.789Z,21.05
2019-04-20T02:22:51.578Z,19.75
2019-04-20T02:25:09.950Z,17.35
2019-04-20T02:27:49.754Z,17.45
2019-04-20T02:30:47.550Z,19.02
2019-04-20T02:33:34.733Z,18.75
2019-04-20T02:36:15.485Z,22.65
2019-04-20T02:41:36.192Z,25.95
2019-04-20T02:44:21.796Z,27.25
2019-04-20T02:46:42.738Z,31.17
2019-04-20T02:49:19.846Z,30.37
2019-04-20T02:51:46.726Z,35.65
2019-04-20T02:54:21.957Z,38.10
2019-04-20T02:57:07.534Z,37.45
2019-04-20T02:59:48.710Z,36.85
2019-04-20T03:01:45.627Z,31.10
2019-04-20T03:04:02.078Z,29.48
2019-04-20T03:06:48.363Z,28.60
2019-04-20T03:09:29.857Z,30.60
2019-04-20T03:14:26.589Z,26.23
2019-04-20T03:17:08.704Z,28.12
2019-04-20T03:19:35.872Z,31.62
2019-04-20T03:22:17.471Z,26.82
2019-04-20T03:24:59.341Z,25.52
2019-04-20T03:27:16.144Z,24.67
2019-04-20T03:30:11.941Z,26.05
2019-04-20T03:35:20.052Z,26.17
2019-04-20T03:37:48.694Z,24.35
2019-04-20T03:40:12.897Z,23.32
2019-04-20T03:42:32.927Z,14.78
2019-04-20T03:45:12.268Z,22.95
2019-04-20T03:47:54.372Z,20.62
2019-04-20T03:50:35.605Z,15.23
2019-04-20T03:53:19.823Z,19.52
2019-04-20T03:55:52.873Z,19.52
2019-04-20T03:58:28.961Z,10.45
2019-04-20T04:01:22.767Z,9.85
2019-04-20T04:04:00.287Z,10.03
2019-04-20T04:06:17.775Z,9.85
2019-04-20T04:08:58.683Z,9.03
2019-04-20T04:11:31.533Z,9.83
2019-04-20T04:13:48.133Z,9.15
2019-04-20T04:16:21.959Z,9.70
2019-04-20T04:19:02.816Z,9.15
2019-04-20T04:21:41.162Z,8.63
2019-04-20T04:24:09.460Z,9.25
2019-04-20T04:26:47.427Z,9.35
2019-04-20T04:29:25.722Z,8.98
2019-04-20T04:32:09.344Z,8.78
2019-04-20T04:34:31.052Z,9.13
2019-04-20T04:37:03.456Z,9.48
2019-04-20T04:39:39.048Z,8.38
2019-04-20T04:42:19.112Z,9.53
2019-04-20T04:44:35.437Z,9.78
2019-04-20T04:47:00.258Z,9.33
2019-04-20T04:49:36.071Z,10.08
2019-04-20T04:52:07.957Z,8.83
2019-04-20T04:54:46.263Z,9.48
2019-04-20T04:57:09.508Z,9.73
2019-04-20T04:59:42.446Z,8.93
2019-04-20T05:02:15.984Z,8.90
2019-04-20T05:05:10.361Z,9.23
2019-04-20T05:07:40.039Z,8.20
2019-04-20T05:10:01.254Z,7.62
2019-04-20T05:12:35.064Z,7.75
2019-04-20T05:15:14.325Z,6.78
2019-04-20T05:18:02.109Z,6.92
2019-04-20T05:20:35.347Z,7.33
2019-04-20T05:23:04.899Z,6.37
2019-04-20T05:26:01.780Z,6.45
2019-04-20T05:28:27.501Z,6.45
2019-04-20T05:30:59.302Z,6.72
2019-04-20T05:33:42.552Z,5.83
2019-04-20T05:36:18.616Z,6.42
2019-04-20T05:38:59.110Z,6.53
2019-04-20T05:41:21.836Z,6.55
2019-04-20T05:43:54.507Z,7.03
2019-04-20T05:46:31.053Z,6.90
2019-04-20T05:49:13.428Z,6.78
2019-04-20T05:51:42.420Z,7.53
2019-04-20T05:54:17.911Z,7.30
2019-04-20T05:56:46.662Z,7.33
2019-04-20T05:59:23.832Z,10.00
2019-04-20T06:01:59.131Z,8.28
2019-04-20T06:04:39.811Z,7.05
2019-04-20T06:07:00.421Z,7.17
2019-04-20T06:09:42.239Z,7.25
2019-04-20T06:12:25.425Z,7.28
2019-04-20T06:14:55.906Z,7.15
2019-04-20T06:17:53.107Z,7.25
2019-04-20T06:20:31.231Z,5.85
2019-04-20T06:23:11.958Z,5.62
2019-04-20T06:25:50.845Z,6.42
2019-04-20T06:28:06.603Z,5.70
2019-04-20T06:30:38.661Z,5.22
2019-04-20T06:34:14.328Z,5.85
2019-04-20T06:36:32.266Z,5.30
2019-04-20T06:39:08.391Z,5.83
2019-04-20T06:41:56.780Z,5.67
2019-04-20T06:44:15.043Z,5.28
2019-04-20T06:46:57.036Z,4.83
2019-04-20T06:49:32.063Z,4.53
2019-04-20T06:52:15.393Z,5.35
2019-04-20T06:54:40.666Z,4.78
2019-04-20T06:57:19.635Z,4.50
2019-04-20T06:59:47.380Z,4.53
2019-04-20T07:02:22.292Z,4.70
2019-04-20T07:04:59.674Z,4.60
2019-04-20T07:07:24.001Z,4.47
2019-04-20T07:10:12.123Z,4.25
2019-04-20T07:12:33.325Z,4.85
2019-04-20T07:14:55.547Z,4.12
2019-04-20T07:18:02.763Z,3.90
2019-04-20T07:20:19.459Z,3.92
2019-04-20T07:23:03.590Z,4.12
2019-04-20T07:25:33.781Z,4.30
2019-04-20T07:28:09.806Z,4.33
2019-04-20T07:30:35.117Z,4.10
2019-04-20T07:33:16.100Z,4.20
2019-04-20T07:35:49.381Z,3.70
2019-04-20T07:38:31.183Z,4.15
2019-04-20T07:40:50.357Z,3.67
2019-04-20T07:43:25.556Z,3.72
2019-04-20T07:46:01.841Z,5.17
2019-04-20T07:48:30.842Z,3.55
2019-04-20T07:50:58.234Z,3.12
2019-04-20T07:53:36.262Z,3.70
2019-04-20T07:56:19.976Z,3.50
2019-04-20T07:58:40.132Z,3.42
2019-04-20T08:01:45.230Z,3.20
2019-04-20T08:04:17.419Z,3.05
2019-04-20T08:06:43.174Z,3.00
2019-04-20T08:09:21.849Z,3.30
2019-04-20T08:12:11.811Z,3.10
2019-04-20T08:14:50.607Z,3.20
2019-04-20T08:17:23.461Z,3.35
2019-04-20T08:19:45.681Z,3.00
2019-04-20T08:22:19.796Z,2.80
2019-04-20T08:24:48.258Z,2.90
2019-04-20T08:27:10.969Z,3.10
2019-04-20T08:29:59.899Z,2.85
2019-04-20T08:32:54.206Z,2.98
2019-04-20T08:35:33.142Z,3.37
2019-04-20T08:38:24.163Z,3.15
2019-04-20T08:40:40.361Z,3.10
2019-04-20T08:43:21.014Z,3.00
2019-04-20T08:45:46.601Z,3.42
2019-04-20T08:48:27.507Z,3.15
2019-04-20T08:50:51.786Z,3.25
2019-04-20T08:53:27.563Z,3.30
2019-04-20T08:55:50.113Z,3.37
2019-04-20T08:58:11.371Z,3.05
2019-04-20T09:00:49.615Z,3.10
2019-04-20T09:03:24.374Z,3.40
2019-04-20T09:05:59.105Z,3.00
2019-04-20T09:08:28.111Z,2.67
2019-04-20T09:11:15.369Z,3.30
2019-04-20T09:13:37.181Z,3.35
2019-04-20T09:16:04.231Z,3.15
2019-04-20T09:18:51.485Z,3.30
2019-04-20T09:21:24.234Z,3.50
2019-04-20T09:24:14.597Z,3.47
2019-04-20T09:26:45.673Z,2.85
2019-04-20T09:29:13.956Z,3.25
2019-04-20T09:31:47.101Z,3.72
2019-04-20T09:34:24.785Z,3.33
2019-04-20T09:37:04.527Z,3.00
2019-04-20T09:39:30.325Z,3.08
2019-04-20T09:42:01.152Z,3.50
2019-04-20T09:44:37.514Z,3.02
2019-04-20T09:47:05.565Z,3.58
2019-04-20T09:49:49.282Z,3.87
2019-04-20T09:52:22.306Z,3.80
2019-04-20T09:55:00.478Z,3.30
2019-04-20T09:57:33.958Z,4.03
2019-04-20T10:00:05.683Z,3.67
2019-04-20T10:02:27.816Z,3.25
2019-04-20T10:04:55.732Z,3.50
2019-04-20T10:07:32.563Z,3.50
2019-04-20T10:10:15.896Z,3.52
2019-04-20T10:12:37.629Z,3.52
2019-04-20T10:15:15.676Z,3.75
2019-04-20T10:17:43.568Z,3.62
2019-04-20T10:20:26.246Z,3.42
2019-04-20T10:22:48.818Z,4.35
2019-04-20T10:25:20.601Z,3.83
2019-04-20T10:27:51.960Z,3.87
2019-04-20T10:30:23.352Z,3.62
2019-04-20T10:32:55.738Z,4.00
2019-04-20T10:35:27.620Z,4.45
2019-04-20T10:38:00.778Z,3.50
2019-04-20T10:40:44.943Z,3.35
2019-04-20T10:43:06.143Z,4.00
2019-04-20T10:45:39.097Z,9.78
2019-04-20T10:48:10.906Z,6.20
2019-04-20T10:50:43.094Z,5.45
2019-04-20T10:53:15.685Z,4.55
2019-04-20T10:55:47.384Z,3.90
2019-04-20T10:58:19.708Z,3.83
2019-04-20T11:00:51.920Z,3.15
2019-04-20T11:03:24.737Z,3.40
2019-04-20T11:05:56.562Z,3.80
2019-04-20T11:08:28.678Z,3.95
2019-04-20T11:11:11.853Z,4.28
2019-04-20T11:13:33.409Z,3.80
2019-04-20T11:16:06.357Z,4.30
2019-04-20T11:18:37.900Z,3.58
2019-04-20T11:21:09.315Z,4.47
2019-04-20T11:23:40.694Z,4.67
2019-04-20T11:26:12.299Z,4.25
2019-04-20T11:28:44.190Z,4.00
2019-04-20T11:31:16.573Z,3.42
2019-04-20T11:33:48.126Z,3.52
2019-04-20T11:36:19.580Z,3.87
2019-04-20T11:38:53.025Z,3.95
2019-04-20T11:41:27.482Z,4.08
2019-04-20T11:43:58.027Z,3.67
2019-04-20T11:46:30.468Z,4.10
2019-04-20T11:49:01.943Z,3.98
2019-04-20T11:51:33.871Z,4.20
2019-04-20T11:54:06.206Z,4.67
2019-04-20T11:56:40.785Z,4.25
2019-04-20T11:59:12.377Z,3.80
2019-04-20T12:02:02.363Z,4.60
2019-04-20T12:04:41.435Z,3.90
2019-04-20T12:07:06.809Z,3.50
2019-04-20T12:09:39.601Z,3.90
2019-04-20T12:12:24.689Z,3.50
2019-04-20T12:14:44.450Z,4.60
2019-04-20T12:17:15.790Z,4.50
2019-04-20T12:19:47.998Z,4.00
2019-04-20T12:22:19.443Z,4.12
2019-04-20T12:24:51.933Z,3.87
2019-04-20T12:27:24.874Z,3.92
2019-04-20T12:29:57.546Z,3.90
2019-04-20T12:32:35.274Z,3.52
2019-04-20T12:35:02.635Z,3.90
2019-04-20T12:37:36.829Z,3.58
2019-04-20T12:40:14.260Z,3.67
2019-04-20T12:42:46.616Z,4.22
2019-04-20T12:45:20.206Z,3.60
2019-04-20T12:47:51.636Z,3.83
2019-04-20T12:50:23.524Z,3.65
2019-04-20T12:52:54.900Z,3.85
2019-04-20T12:55:26.472Z,3.85
2019-04-20T12:57:58.635Z,3.75
2019-04-20T13:00:33.251Z,3.40
2019-04-20T13:03:05.355Z,3.45
2019-04-20T13:05:38.007Z,3.02
2019-04-20T13:08:13.760Z,3.15
2019-04-20T13:10:46.853Z,3.15
2019-04-20T13:13:36.525Z,3.27
2019-04-20T13:16:12.264Z,3.20
2019-04-20T13:18:45.528Z,3.33
2019-04-20T13:21:19.044Z,3.77
2019-04-20T13:23:51.144Z,3.55
2019-04-20T13:26:22.708Z,3.60
2019-04-20T13:28:55.127Z,3.25
2019-04-20T13:31:27.610Z,3.27
2019-04-20T13:33:59.249Z,3.62
2019-04-20T13:36:30.758Z,3.60
2019-04-20T13:39:02.180Z,3.52
2019-04-20T13:41:35.790Z,3.30
2019-04-20T13:44:08.372Z,4.42
2019-04-20T13:46:40.923Z,3.55
2019-04-20T13:49:13.386Z,3.40
2019-04-20T13:51:44.749Z,3.62
2019-04-20T13:54:19.433Z,3.95
2019-04-20T13:56:51.081Z,3.10
2019-04-20T13:59:32.048Z,2.98
2019-04-20T14:02:06.446Z,3.30
2019-04-20T14:04:41.013Z,3.25
2019-04-20T14:07:15.296Z,3.60
2019-04-20T14:09:45.793Z,4.17
2019-04-20T14:12:25.261Z,3.70
2019-04-20T14:14:51.071Z,3.10
2019-04-20T14:17:23.451Z,3.90
2019-04-20T14:19:57.157Z,4.08
2019-04-20T14:22:29.291Z,3.90
2019-04-20T14:25:00.934Z,3.12
2019-04-20T14:27:32.934Z,3.42
2019-04-20T14:30:04.561Z,3.33
2019-04-20T14:32:36.813Z,3.37
2019-04-20T14:35:09.209Z,3.52
2019-04-20T14:37:41.617Z,3.55
2019-04-20T14:40:14.586Z,3.65
2019-04-20T14:42:49.960Z,3.30
2019-04-20T14:45:20.688Z,3.40
2019-04-20T14:47:52.259Z,4.15
2019-04-20T14:50:23.720Z,4.08
2019-04-20T14:52:55.650Z,3.77
2019-04-20T14:55:27.142Z,3.15
2019-04-20T14:58:01.495Z,3.70
2019-04-20T15:00:58.893Z,3.72
2019-04-20T15:03:36.709Z,3.92
2019-04-20T15:06:07.479Z,3.65
2019-04-20T15:08:38.864Z,3.37
2019-04-20T15:11:10.255Z,3.20
2019-04-20T15:13:42.608Z,3.42
2019-04-20T15:16:15.053Z,3.80
2019-04-20T15:18:55.148Z,3.45
2019-04-20T15:21:29.393Z,3.45
2019-04-20T15:24:01.732Z,3.60
2019-04-20T15:26:34.290Z,3.27
2019-04-20T15:29:06.335Z,3.62
2019-04-20T15:31:38.419Z,3.33
2019-04-20T15:34:10.857Z,3.70
2019-04-20T15:36:42.387Z,4.22
2019-04-20T15:39:14.897Z,3.62
2019-04-20T15:41:47.326Z,3.50
2019-04-20T15:44:19.482Z,4.03
2019-04-20T15:46:51.142Z,3.83
2019-04-20T15:49:22.471Z,4.55
2019-04-20T15:51:53.931Z,4.12
2019-04-20T15:54:25.574Z,4.28
2019-04-20T15:57:02.441Z,3.85
2019-04-20T15:59:30.631Z,3.95
2019-04-20T16:02:21.033Z,4.25
2019-04-20T16:05:04.024Z,3.98
2019-04-20T16:07:42.283Z,4.47
2019-04-20T16:10:09.559Z,4.15
2019-04-20T16:12:41.164Z,4.45
2019-04-20T16:15:13.592Z,4.50
2019-04-20T16:17:47.759Z,4.28
2019-04-20T16:20:23.143Z,4.20
2019-04-20T16:22:52.265Z,4.70
2019-04-20T16:25:25.587Z,4.47
2019-04-20T16:27:56.968Z,4.90
2019-04-20T16:30:29.656Z,4.67
2019-04-20T16:33:01.244Z,4.87
2019-04-20T16:35:32.641Z,5.50
2019-04-20T16:38:04.450Z,6.42
2019-04-20T16:40:35.935Z,7.08
2019-04-20T16:43:18.898Z,7.17
2019-04-20T16:45:41.241Z,7.15
2019-04-20T16:48:13.933Z,8.08
2019-04-20T16:50:46.769Z,8.98
2019-04-20T16:53:19.075Z,9.63
2019-04-20T16:55:50.665Z,9.98
2019-04-20T16:58:23.879Z,10.03
2019-04-20T17:00:55.906Z,10.98
2019-04-20T17:03:38.943Z,10.85
2019-04-20T17:06:02.222Z,12.30
2019-04-20T17:08:33.973Z,12.45
2019-04-20T17:11:05.617Z,14.53
2019-04-20T17:13:45.304Z,14.18
2019-04-20T17:16:10.301Z,14.80
2019-04-20T17:18:41.801Z,19.10
2019-04-20T17:21:16.592Z,21.50
2019-04-20T17:23:47.001Z,22.10
2019-04-20T17:26:20.943Z,22.93
2019-04-20T17:28:57.711Z,26.30
2019-04-20T17:31:35.397Z,32.20
2019-04-20T17:34:25.320Z,35.15
2019-04-20T17:36:40.503Z,40.75
2019-04-20T17:39:15.739Z,45.65
2019-04-20T17:42:03.056Z,56.95
2019-04-20T17:44:34.307Z,58.83
2019-04-20T17:47:03.450Z,55.92
2019-04-20T17:49:41.360Z,56.48
2019-04-20T17:52:24.068Z,52.10
2019-04-20T17:54:39.865Z,51.33
2019-04-20T17:57:11.461Z,45.95
2019-04-20T17:59:55.339Z,40.03
2019-04-20T18:02:43.200Z,39.75
2019-04-20T18:05:23.004Z,43.52
2019-04-20T18:07:52.461Z,41.92
2019-04-20T18:10:27.354Z,41.73
2019-04-20T18:12:48.027Z,38.67
2019-04-20T18:15:35.914Z,37.60
2019-04-20T18:18:23.679Z,41.73
2019-04-20T18:20:50.614Z,45.80
2019-04-20T18:23:28.119Z,42.43
2019-04-20T18:26:17.201Z,43.25
2019-04-20T18:28:54.428Z,47.20
2019-04-20T18:31:08.943Z,41.28
2019-04-20T18:33:42.459Z,37.48
2019-04-20T18:36:23.412Z,36.77
2019-04-20T18:38:55.226Z,33.35
2019-04-20T18:41:30.813Z,37.85
2019-04-20T18:43:57.596Z,34.98
2019-04-20T18:46:51.778Z,31.55
2019-04-20T18:49:16.522Z,27.98
2019-04-20T18:51:33.904Z,31.50
2019-04-20T18:54:11.730Z,30.15
2019-04-20T18:56:43.713Z,27.73
2019-04-20T18:59:13.184Z,24.82
2019-04-20T19:01:46.747Z,27.60
2019-04-20T19:04:19.728Z,31.55
2019-04-20T19:06:52.100Z,28.87
2019-04-20T19:09:28.082Z,27.17
2019-04-20T19:12:02.473Z,29.35
2019-04-20T19:14:37.148Z,24.77
2019-04-20T19:17:18.853Z,24.30
2019-04-20T19:19:52.881Z,23.52
2019-04-20T19:22:20.164Z,28.12
2019-04-20T19:24:51.813Z,28.20
2019-04-20T19:27:33.725Z,25.95
2019-04-20T19:30:11.787Z,23.90
2019-04-20T19:32:39.892Z,23.05
2019-04-20T19:35:14.518Z,24.35
2019-04-20T19:37:51.655Z,21.97
2019-04-20T19:40:19.158Z,22.43
2019-04-20T19:42:59.281Z,19.07
2019-04-20T19:45:43.882Z,22.02
2019-04-20T19:48:09.377Z,20.65
2019-04-20T19:50:53.569Z,25.40
2019-04-20T19:53:22.723Z,23.92
2019-04-20T19:55:43.969Z,19.25
2019-04-20T19:58:16.201Z,18.65
2019-04-20T20:00:50.517Z,20.92
2019-04-20T20:03:21.837Z,21.90
2019-04-20T20:05:54.769Z,19.65
2019-04-20T20:08:29.921Z,21.90
2019-04-20T20:11:02.803Z,20.17
2019-04-20T20:13:41.235Z,19.98
2019-04-20T20:16:13.977Z,19.77
2019-04-20T20:18:57.255Z,19.00
2019-04-20T20:21:23.698Z,17.17
2019-04-20T20:23:46.246Z,18.95
2019-04-20T20:26:23.086Z,18.92
2019-04-20T20:29:03.588Z,16.25
2019-04-20T20:31:37.766Z,16.30
2019-04-20T20:34:10.944Z,16.95
2019-04-20T20:36:38.290Z,16.77
2019-04-20T20:39:14.629Z,16.23
2019-04-20T20:41:53.343Z,17.42
2019-04-20T20:44:27.588Z,16.55
2019-04-20T20:46:59.242Z,17.67
2019-04-20T20:49:38.901Z,18.05
2019-04-20T20:52:13.317Z,17.73
2019-04-20T20:54:41.364Z,17.90
2019-04-20T20:57:08.759Z,18.30
2019-04-20T20:59:43.047Z,17.70
2019-04-20T21:02:19.315Z,19.32
2019-04-20T21:04:41.796Z,18.85
2019-04-20T21:07:13.210Z,18.37
2019-04-20T21:09:45.856Z,19.17
2019-04-20T21:12:21.300Z,17.60
2019-04-20T21:14:53.104Z,18.62
2019-04-20T21:17:32.011Z,17.40
2019-04-20T21:20:17.078Z,20.82
2019-04-20T21:22:49.358Z,17.23
2019-04-20T21:25:08.835Z,18.20
2019-04-20T21:27:40.421Z,16.85
2019-04-20T21:30:18.458Z,18.40
2019-04-20T21:32:50.334Z,18.12
2019-04-20T21:35:19.821Z,17.65
2019-04-20T21:37:59.960Z,19.87
2019-04-20T21:40:33.959Z,19.82
2019-04-20T21:43:02.364Z,19.62
2019-04-20T21:45:36.091Z,19.75
2019-04-20T21:48:09.771Z,18.42
2019-04-20T21:50:58.653Z,18.55
2019-04-20T21:53:19.705Z,17.77
2019-04-20T21:55:45.900Z,17.70
2019-04-20T21:58:25.264Z,17.80
2019-04-20T22:01:07.010Z,18.98
2019-04-20T22:06:04.821Z,15.93
2019-04-20T22:08:39.315Z,15.85
2019-04-20T22:11:09.781Z,16.75
2019-04-20T22:13:43.907Z,17.77
2019-04-20T22:16:16.695Z,16.80
2019-04-20T22:18:54.094Z,16.60
2019-04-20T22:21:26.654Z,17.50
2019-04-20T22:24:07.943Z,16.85
2019-04-20T22:26:34.487Z,17.17
2019-04-20T22:29:00.732Z,18.20
2019-04-20T22:31:32.220Z,18.73
2019-04-20T22:34:10.404Z,17.17
2019-04-20T22:36:43.064Z,17.73
2019-04-20T22:39:13.659Z,17.25
2019-04-20T22:42:00.237Z,16.40
2019-04-20T22:44:32.056Z,17.10
2019-04-20T22:47:05.444Z,15.58
2019-04-20T22:49:48.549Z,15.23
2019-04-20T22:52:26.588Z,20.35
2019-04-20T22:55:01.211Z,22.17
2019-04-20T22:57:31.591Z,20.68
2019-04-20T22:59:56.873Z,19.82
2019-04-20T23:02:24.760Z,17.85
2019-04-20T23:04:57.082Z,18.95
2019-04-20T23:07:28.837Z,20.55
2019-04-20T23:10:03.273Z,20.05
2019-04-20T23:12:33.959Z,20.80
2019-04-20T23:15:08.174Z,22.30
2019-04-20T23:17:45.112Z,22.48
2019-04-20T23:20:22.962Z,20.62
2019-04-20T23:22:50.826Z,23.25
2019-04-20T23:25:20.935Z,21.27
2019-04-20T23:27:58.980Z,20.80
2019-04-20T23:33:00.118Z,24.05
2019-04-20T23:35:36.819Z,21.93
2019-04-20T23:38:11.164Z,24.05
2019-04-20T23:40:39.646Z,22.73
2019-04-20T23:43:25.352Z,26.02
2019-04-20T23:46:03.300Z,26.25
2019-04-20T23:48:43.023Z,25.82
2019-04-20T23:51:36.223Z,25.75
2019-04-20T23:53:55.490Z,24.67
2019-04-20T23:56:20.870Z,25.82
2019-04-20T23:58:56.082Z,30.32
